Terminal Aerodrome Forecast
Issued by NWS

Home | Current Version | Previous Version | Text Only | Print | Product List | Glossary On
Versions: 1 2 3 4 5 6 7 8 9 10 11 12 13
401
FTUS42 KMLB 232217 AAA
TAFFPR
TAF AMD
KFPR 232217Z 2322/2418 23008KT P6SM VCSH SCT020 BKN040 BKN090
      TEMPO 2322/2324 27013KT 2SM +SHRA BKN025
     FM240300 27005KT P6SM VCSH FEW009 SCT015 BKN025
     FM240900 36007KT P6SM SCT010 SCT025 BKN035=

USA.gov is the U.S. government's official web portal to all federal, state and local government web resources and services.